createdAt,value
2022-11-03T00:02:08.714Z,0.77
2022-11-03T00:04:36.430Z,0.98
2022-11-03T00:07:04.129Z,1.33
2022-11-03T00:09:31.990Z,1.13
2022-11-03T00:11:59.721Z,0.90
2022-11-03T00:14:27.573Z,1.33
2022-11-03T00:16:55.521Z,0.60
2022-11-03T00:19:23.240Z,0.80
2022-11-03T00:21:50.921Z,0.98
2022-11-03T00:24:18.674Z,1.08
2022-11-03T00:26:46.558Z,0.55
2022-11-03T00:29:15.130Z,0.65
2022-11-03T00:31:45.035Z,0.47
2022-11-03T00:34:13.255Z,0.47
2022-11-03T00:36:43.485Z,0.40
2022-11-03T00:39:12.143Z,0.98
2022-11-03T00:41:40.636Z,0.50
2022-11-03T00:44:10.747Z,0.70
2022-11-03T00:46:38.767Z,0.40
2022-11-03T00:49:06.989Z,0.57
2022-11-03T00:51:37.739Z,0.52
2022-11-03T00:54:06.097Z,0.60
2022-11-03T00:56:36.651Z,0.47
2022-11-03T00:59:05.577Z,0.50
2022-11-03T01:01:46.594Z,0.40
2022-11-03T01:04:35.467Z,0.50
2022-11-03T01:07:04.483Z,0.40
2022-11-03T01:09:41.251Z,0.45
2022-11-03T01:12:13.717Z,0.60
2022-11-03T01:14:47.786Z,0.40
2022-11-03T01:17:18.737Z,0.30
2022-11-03T01:19:47.155Z,0.60
2022-11-03T01:22:15.855Z,0.40
2022-11-03T01:24:44.304Z,0.30
2022-11-03T01:27:17.862Z,0.20
2022-11-03T01:29:46.316Z,0.30
2022-11-03T01:32:14.001Z,0.30
2022-11-03T01:34:41.810Z,0.20
2022-11-03T01:37:09.603Z,0.28
2022-11-03T01:39:37.241Z,0.20
2022-11-03T01:42:05.171Z,0.20
2022-11-03T01:44:40.100Z,0.20
2022-11-03T01:47:15.572Z,0.10
2022-11-03T01:49:56.488Z,0.20
2022-11-03T01:52:31.262Z,0.10
2022-11-03T01:55:05.218Z,0.20
2022-11-03T01:57:41.388Z,0.10
2022-11-03T02:00:09.847Z,0.22
2022-11-03T02:02:41.633Z,0.20
2022-11-03T02:05:10.863Z,0.22
2022-11-03T02:08:05.158Z,0.20
2022-11-03T02:10:33.257Z,0.20
2022-11-03T02:13:02.239Z,0.20
2022-11-03T02:15:32.188Z,0.80
2022-11-03T02:18:00.817Z,0.20
2022-11-03T02:20:31.299Z,0.20
2022-11-03T02:23:11.331Z,0.10
2022-11-03T02:25:55.857Z,0.30
2022-11-03T02:28:30.191Z,0.20
2022-11-03T02:31:06.619Z,0.20
2022-11-03T02:33:54.204Z,0.10
2022-11-03T02:36:29.424Z,0.20
2022-11-03T02:39:17.764Z,0.43
2022-11-03T02:41:47.352Z,0.10
2022-11-03T02:44:17.973Z,0.20
2022-11-03T02:46:50.355Z,0.20
2022-11-03T02:49:18.832Z,0.13
2022-11-03T02:51:46.426Z,0.00
2022-11-03T02:54:20.235Z,0.10
2022-11-03T02:56:55.956Z,0.20
2022-11-03T02:59:41.458Z,0.20
2022-11-03T03:02:12.530Z,0.20
2022-11-03T03:04:43.572Z,1.17
2022-11-03T03:07:17.472Z,0.20
2022-11-03T03:09:52.261Z,0.20
2022-11-03T03:12:22.212Z,0.20
2022-11-03T03:14:52.199Z,0.30
2022-11-03T03:17:29.295Z,0.47
2022-11-03T03:20:15.181Z,0.35
2022-11-03T03:23:12.066Z,0.40
2022-11-03T03:25:45.930Z,0.60
2022-11-03T03:28:20.039Z,1.55
2022-11-03T03:30:49.644Z,0.60
2022-11-03T03:33:18.972Z,0.70
2022-11-03T03:35:50.813Z,0.60
2022-11-03T03:38:28.462Z,0.50
2022-11-03T03:40:59.889Z,0.63
2022-11-03T03:43:29.875Z,0.70
2022-11-03T03:46:04.456Z,0.65
2022-11-03T03:51:02.255Z,0.70
2022-11-03T03:53:31.013Z,0.52
2022-11-03T03:55:59.538Z,0.60
2022-11-03T03:58:27.305Z,0.55
2022-11-03T04:00:55.156Z,0.70
2022-11-03T04:03:24.911Z,0.50
2022-11-03T04:05:54.631Z,0.75
2022-11-03T04:08:22.987Z,0.70
2022-11-03T04:11:09.229Z,0.47
2022-11-03T04:13:55.145Z,0.40
2022-11-03T04:16:41.009Z,0.45
2022-11-03T04:19:30.102Z,0.43
2022-11-03T04:22:16.118Z,0.90
2022-11-03T04:24:45.726Z,0.45
2022-11-03T04:27:22.264Z,0.40
2022-11-03T04:29:50.472Z,0.30
2022-11-03T04:32:18.866Z,0.60
2022-11-03T04:34:47.544Z,0.50
2022-11-03T04:37:16.152Z,0.60
2022-11-03T04:42:19.135Z,0.85
2022-11-03T04:44:48.259Z,0.50
2022-11-03T04:47:18.474Z,0.60
2022-11-03T04:49:48.278Z,0.70
2022-11-03T04:52:20.110Z,0.50
2022-11-03T04:54:50.159Z,0.50
2022-11-03T04:57:18.837Z,0.45
2022-11-03T04:59:49.204Z,0.60
2022-11-03T05:02:21.581Z,0.47
2022-11-03T05:04:49.436Z,0.63
2022-11-03T05:07:33.217Z,0.55
2022-11-03T05:10:04.081Z,0.20
2022-11-03T05:12:31.971Z,0.30
2022-11-03T05:14:59.610Z,0.32
2022-11-03T05:17:29.014Z,0.30
2022-11-03T05:20:03.755Z,0.30
2022-11-03T05:22:36.213Z,0.40
2022-11-03T05:25:31.320Z,0.30
2022-11-03T05:27:59.053Z,0.30
2022-11-03T05:30:26.777Z,0.40
2022-11-03T05:32:54.625Z,0.30
2022-11-03T05:35:23.932Z,0.45
2022-11-03T05:37:51.915Z,0.50
2022-11-03T05:40:25.749Z,0.30
2022-11-03T05:43:03.134Z,0.40
2022-11-03T05:45:33.507Z,0.30
2022-11-03T05:48:02.555Z,0.22
2022-11-03T05:50:34.200Z,0.40
2022-11-03T05:53:24.953Z,0.50
2022-11-03T05:55:53.504Z,0.60
2022-11-03T05:58:25.953Z,0.40
2022-11-03T06:00:54.465Z,0.30
2022-11-03T06:03:28.484Z,0.40
2022-11-03T06:05:57.454Z,0.50
2022-11-03T06:08:30.927Z,0.52
2022-11-03T06:11:00.926Z,0.30
2022-11-03T06:13:37.950Z,0.70
2022-11-03T06:16:28.555Z,0.30
2022-11-03T06:18:56.330Z,0.20
2022-11-03T06:21:26.875Z,0.10
2022-11-03T06:23:55.393Z,0.17
2022-11-03T06:26:28.989Z,0.10
2022-11-03T06:28:56.868Z,0.10
2022-11-03T06:31:28.032Z,0.10
2022-11-03T06:33:57.531Z,0.10
2022-11-03T06:36:28.855Z,0.17
2022-11-03T06:39:02.369Z,0.10
2022-11-03T06:41:32.900Z,0.30
2022-11-03T06:44:03.440Z,0.40
2022-11-03T06:46:33.115Z,0.50
2022-11-03T06:49:04.433Z,0.47
2022-11-03T06:51:36.867Z,0.50
2022-11-03T06:54:09.949Z,0.50
2022-11-03T06:56:37.978Z,0.40
2022-11-03T06:59:11.067Z,0.35
2022-11-03T07:01:39.177Z,0.52
2022-11-03T07:04:20.335Z,1.20
2022-11-03T07:06:52.975Z,0.40
2022-11-03T07:09:24.392Z,0.60
2022-11-03T07:11:55.621Z,0.30
2022-11-03T07:14:28.001Z,0.20
2022-11-03T07:17:02.497Z,0.30
2022-11-03T07:19:31.606Z,0.32
2022-11-03T07:22:01.451Z,0.32
2022-11-03T07:24:36.729Z,0.35
2022-11-03T07:27:27.296Z,0.50
2022-11-03T07:30:10.380Z,0.50
2022-11-03T07:32:39.145Z,1.00
2022-11-03T07:36:08.233Z,0.50
2022-11-03T07:38:26.456Z,0.60
2022-11-03T07:40:56.730Z,0.50
2022-11-03T07:43:36.091Z,0.47
2022-11-03T07:46:05.591Z,0.40
2022-11-03T07:48:47.341Z,0.63
2022-11-03T07:51:22.800Z,0.28
2022-11-03T07:54:13.552Z,0.70
2022-11-03T07:56:51.003Z,1.02
2022-11-03T07:59:20.475Z,1.40
2022-11-03T08:01:49.611Z,2.28
2022-11-03T08:04:46.783Z,2.33
2022-11-03T08:07:14.649Z,2.63
2022-11-03T08:09:42.340Z,2.88
2022-11-03T08:12:09.964Z,3.17
2022-11-03T08:14:38.754Z,2.50
2022-11-03T08:17:06.567Z,2.33
2022-11-03T08:19:34.386Z,2.63
2022-11-03T08:22:02.314Z,1.50
2022-11-03T08:24:30.023Z,1.38
2022-11-03T08:26:57.806Z,1.17
2022-11-03T08:29:27.591Z,0.65
2022-11-03T08:31:55.744Z,1.10
2022-11-03T08:34:23.521Z,1.00
2022-11-03T08:36:51.405Z,0.70
2022-11-03T08:39:19.220Z,0.52
2022-11-03T08:41:46.959Z,0.82
2022-11-03T08:44:14.456Z,0.50
2022-11-03T08:46:41.924Z,0.60
2022-11-03T08:49:09.536Z,0.75
2022-11-03T08:51:41.535Z,0.40
2022-11-03T08:54:11.959Z,0.50
2022-11-03T08:56:39.706Z,0.60
2022-11-03T08:59:07.517Z,0.60
2022-11-03T09:01:35.282Z,0.43
2022-11-03T09:04:03.760Z,0.40
2022-11-03T09:06:31.481Z,0.40
2022-11-03T09:11:46.949Z,0.50
2022-11-03T09:14:15.175Z,1.20
2022-11-03T09:16:42.885Z,0.40
2022-11-03T09:19:10.693Z,0.40
2022-11-03T09:21:38.696Z,0.40
2022-11-03T09:24:07.587Z,0.45
2022-11-03T09:26:38.649Z,0.40
2022-11-03T09:29:06.562Z,0.30
2022-11-03T09:31:34.707Z,0.40
2022-11-03T09:34:08.386Z,0.40
2022-11-03T09:36:36.265Z,0.40
2022-11-03T09:39:04.061Z,0.50
2022-11-03T09:41:53.658Z,0.40
2022-11-03T09:44:21.282Z,0.30
2022-11-03T09:46:53.875Z,0.50
2022-11-03T09:49:26.754Z,0.30
2022-11-03T09:51:56.092Z,0.30
2022-11-03T09:54:24.423Z,0.30
2022-11-03T09:56:52.131Z,0.40
2022-11-03T09:59:23.574Z,0.40
2022-11-03T10:01:53.736Z,0.47
2022-11-03T10:04:27.715Z,0.40
2022-11-03T10:07:00.533Z,0.30
2022-11-03T10:09:30.124Z,0.35
2022-11-03T10:11:58.245Z,0.30
2022-11-03T10:14:26.379Z,0.30
2022-11-03T10:17:00.597Z,0.30
2022-11-03T10:19:29.051Z,0.30
2022-11-03T10:21:56.984Z,0.50
2022-11-03T10:24:26.160Z,0.20
2022-11-03T10:26:55.356Z,0.30
2022-11-03T10:29:28.021Z,0.35
2022-11-03T10:31:58.864Z,0.20
2022-11-03T10:34:37.712Z,0.20
2022-11-03T10:37:24.526Z,0.30
2022-11-03T10:39:54.973Z,0.38
2022-11-03T10:42:35.276Z,0.40
2022-11-03T10:45:18.569Z,0.30
2022-11-03T10:48:05.715Z,0.30
2022-11-03T10:50:33.828Z,0.40
2022-11-03T10:53:01.965Z,0.30
2022-11-03T10:55:29.709Z,0.30
2022-11-03T10:57:58.728Z,0.32
2022-11-03T11:00:26.426Z,0.52
2022-11-03T11:02:59.984Z,0.45
2022-11-03T11:05:28.496Z,0.30
2022-11-03T11:07:56.392Z,0.40
2022-11-03T11:10:29.474Z,0.70
2022-11-03T11:13:19.282Z,0.30
2022-11-03T11:15:52.863Z,0.32
2022-11-03T11:18:41.086Z,0.40
2022-11-03T11:21:20.540Z,0.30
2022-11-03T11:23:50.009Z,0.35
2022-11-03T11:26:33.996Z,0.30
2022-11-03T11:29:11.332Z,0.30
2022-11-03T11:31:40.501Z,0.40
2022-11-03T11:34:17.560Z,0.40
2022-11-03T11:36:46.664Z,0.95
2022-11-03T11:39:23.832Z,0.88
2022-11-03T11:42:15.609Z,0.70
2022-11-03T11:44:43.472Z,0.60
2022-11-03T11:47:49.973Z,0.70
2022-11-03T11:50:29.566Z,0.60
2022-11-03T11:53:12.899Z,0.88
2022-11-03T11:55:59.316Z,0.70
2022-11-03T11:58:43.760Z,0.80
2022-11-03T12:01:25.384Z,0.57
2022-11-03T12:03:58.780Z,0.60
2022-11-03T12:06:37.855Z,0.60
2022-11-03T12:09:12.973Z,0.45
2022-11-03T12:12:07.068Z,0.60
2022-11-03T12:14:39.907Z,0.50
2022-11-03T12:17:19.665Z,0.57
2022-11-03T12:19:49.560Z,0.68
2022-11-03T12:22:29.382Z,0.60
2022-11-03T12:25:05.345Z,0.85
2022-11-03T12:27:34.328Z,0.65
2022-11-03T12:30:05.733Z,0.85
2022-11-03T12:32:35.361Z,0.95
2022-11-03T12:35:09.290Z,0.70
2022-11-03T12:37:38.456Z,0.60
2022-11-03T12:40:07.223Z,0.60
2022-11-03T12:42:35.406Z,0.45
2022-11-03T12:45:03.207Z,0.50
2022-11-03T12:47:30.936Z,0.60
2022-11-03T12:49:58.597Z,0.50
2022-11-03T12:52:26.264Z,0.60
2022-11-03T12:54:53.980Z,1.05
2022-11-03T12:57:22.083Z,0.30
2022-11-03T12:59:51.698Z,0.40
2022-11-03T13:02:19.639Z,0.50
2022-11-03T13:04:47.743Z,0.50
2022-11-03T13:07:19.146Z,0.30
2022-11-03T13:12:32.689Z,0.38
2022-11-03T13:15:02.548Z,0.38
2022-11-03T13:17:40.429Z,0.40
2022-11-03T13:20:18.753Z,0.30
2022-11-03T13:22:46.569Z,0.43
2022-11-03T13:25:14.763Z,0.40
2022-11-03T13:27:42.770Z,0.40
2022-11-03T13:30:12.344Z,0.30
2022-11-03T13:32:40.295Z,0.50
2022-11-03T13:35:13.498Z,1.33
2022-11-03T13:37:42.417Z,0.33
2022-11-03T13:40:29.135Z,0.80
2022-11-03T13:43:00.547Z,0.40
2022-11-03T13:45:28.482Z,0.88
2022-11-03T13:48:47.487Z,0.40
2022-11-03T13:50:52.159Z,0.65
2022-11-03T13:56:11.494Z,0.30
2022-11-03T14:01:31.399Z,0.90
2022-11-03T14:06:47.633Z,0.60
2022-11-03T14:09:15.547Z,0.70
2022-11-03T14:12:02.348Z,0.65
2022-11-03T14:14:30.603Z,0.70
2022-11-03T14:16:59.191Z,0.70
2022-11-03T14:19:35.344Z,1.10
2022-11-03T14:22:05.857Z,0.63
2022-11-03T14:24:33.711Z,0.85
2022-11-03T14:27:01.504Z,0.77
2022-11-03T14:29:29.242Z,1.00
2022-11-03T14:31:56.889Z,0.68
2022-11-03T14:34:24.654Z,0.73
2022-11-03T14:36:52.415Z,1.98
2022-11-03T14:39:19.993Z,0.93
2022-11-03T14:42:05.727Z,0.70
2022-11-03T14:44:35.801Z,0.57
2022-11-03T14:47:05.246Z,0.60
2022-11-03T14:49:34.738Z,0.85
2022-11-03T14:52:04.303Z,0.50
2022-11-03T14:54:32.355Z,0.40
2022-11-03T14:57:00.350Z,0.55
2022-11-03T14:59:28.502Z,0.50
2022-11-03T15:01:57.092Z,0.43
2022-11-03T15:04:25.486Z,0.50
2022-11-03T15:06:53.354Z,0.50
2022-11-03T15:09:20.922Z,0.50
2022-11-03T15:11:48.805Z,0.40
2022-11-03T15:14:16.482Z,0.30
2022-11-03T15:16:46.308Z,0.40
2022-11-03T15:19:14.264Z,0.40
2022-11-03T15:21:41.997Z,0.38
2022-11-03T15:26:57.441Z,0.60
2022-11-03T15:29:25.128Z,0.50
2022-11-03T15:31:52.792Z,0.63
2022-11-03T15:34:20.529Z,0.30
2022-11-03T15:36:48.209Z,0.30
2022-11-03T15:39:16.267Z,0.32
2022-11-03T15:41:44.043Z,0.70
2022-11-03T15:44:11.764Z,0.60
2022-11-03T15:46:39.517Z,0.70
2022-11-03T15:49:07.361Z,0.57
2022-11-03T15:51:34.988Z,0.60
2022-11-03T15:54:02.731Z,0.63
2022-11-03T15:56:30.728Z,0.50
2022-11-03T15:58:58.597Z,0.60
2022-11-03T16:01:26.587Z,0.50
2022-11-03T16:03:54.626Z,0.60
2022-11-03T16:06:40.223Z,0.50
2022-11-03T16:09:10.416Z,0.50
2022-11-03T16:11:38.288Z,0.30
2022-11-03T16:14:06.134Z,0.43
2022-11-03T16:16:34.046Z,0.70
2022-11-03T16:19:01.911Z,0.60
2022-11-03T16:21:29.745Z,0.77
2022-11-03T16:23:57.646Z,0.68
2022-11-03T16:26:25.578Z,0.60
2022-11-03T16:28:53.609Z,0.63
2022-11-03T16:31:22.086Z,0.60
2022-11-03T16:33:49.867Z,0.63
2022-11-03T16:36:19.214Z,0.70
2022-11-03T16:38:47.094Z,0.70
2022-11-03T16:41:15.112Z,0.60
2022-11-03T16:43:42.977Z,0.70
2022-11-03T16:46:11.042Z,0.60
2022-11-03T16:48:38.885Z,0.47
2022-11-03T16:51:06.911Z,0.60
2022-11-03T16:53:35.576Z,0.40
2022-11-03T16:56:03.769Z,0.73
2022-11-03T16:58:31.579Z,0.73
2022-11-03T17:00:59.443Z,1.55
2022-11-03T17:03:27.395Z,0.73
2022-11-03T17:05:55.545Z,0.80
2022-11-03T17:08:51.397Z,0.93
2022-11-03T17:11:11.308Z,1.00
2022-11-03T17:13:39.008Z,0.90
2022-11-03T17:16:07.064Z,0.80
2022-11-03T17:18:34.998Z,0.63
2022-11-03T17:21:02.783Z,0.88
2022-11-03T17:23:30.851Z,1.50
2022-11-03T17:26:01.156Z,1.52
2022-11-03T17:28:29.416Z,1.20
2022-11-03T17:30:57.551Z,1.40
2022-11-03T17:33:25.572Z,1.58
2022-11-03T17:35:53.700Z,4.68
2022-11-03T17:38:22.229Z,16.35
2022-11-03T17:40:50.732Z,27.85
2022-11-03T17:43:31.525Z,32.97
2022-11-03T17:45:59.460Z,25.52
2022-11-03T17:48:27.481Z,19.20
2022-11-03T17:50:56.703Z,15.40
2022-11-03T17:53:30.253Z,12.85
2022-11-03T17:58:47.647Z,16.05
2022-11-03T18:01:27.654Z,23.85
2022-11-03T18:03:55.947Z,14.43
2022-11-03T18:06:24.166Z,9.45
2022-11-03T18:08:52.045Z,8.27
2022-11-03T18:15:04.095Z,5.03
2022-11-03T18:17:31.832Z,5.05
2022-11-03T18:19:59.481Z,6.72
2022-11-03T18:22:27.003Z,16.88
2022-11-03T18:24:54.516Z,30.77
2022-11-03T18:27:25.260Z,31.52
2022-11-03T18:29:53.033Z,29.15
2022-11-03T18:32:20.739Z,18.20
2022-11-03T18:34:48.305Z,14.05
2022-11-03T18:37:15.941Z,8.18
2022-11-03T18:39:43.639Z,7.50
2022-11-03T18:42:16.523Z,5.55
2022-11-03T18:44:44.639Z,6.80
2022-11-03T18:47:12.348Z,12.55
2022-11-03T18:49:39.994Z,15.95
2022-11-03T18:52:13.504Z,17.48
2022-11-03T18:54:46.124Z,13.43
2022-11-03T18:57:14.025Z,10.75
2022-11-03T18:59:44.755Z,6.13
2022-11-03T19:02:28.450Z,4.68
2022-11-03T19:04:56.019Z,3.33
2022-11-03T19:07:31.201Z,17.60
2022-11-03T19:10:00.099Z,6.53
2022-11-03T19:12:27.817Z,4.57
2022-11-03T19:14:55.659Z,3.60
2022-11-03T19:17:24.762Z,3.70
2022-11-03T19:19:53.999Z,3.83
2022-11-03T19:22:23.335Z,7.90
2022-11-03T19:24:51.450Z,6.82
2022-11-03T19:27:24.465Z,4.05
2022-11-03T19:29:53.307Z,4.05
2022-11-03T19:32:30.226Z,4.72
2022-11-03T19:35:02.122Z,4.38
2022-11-03T19:37:35.508Z,4.72
2022-11-03T19:40:09.336Z,4.07
2022-11-03T19:42:38.090Z,3.23
2022-11-03T19:45:13.946Z,2.45
2022-11-03T19:48:18.208Z,3.17
2022-11-03T19:50:40.113Z,2.10
2022-11-03T19:53:08.306Z,2.22
2022-11-03T19:55:42.405Z,2.10
2022-11-03T19:58:18.191Z,3.75
2022-11-03T20:00:46.918Z,7.90
2022-11-03T20:03:15.105Z,6.18
2022-11-03T20:05:48.983Z,5.97
2022-11-03T20:08:20.835Z,6.47
2022-11-03T20:10:48.962Z,6.28
2022-11-03T20:13:21.756Z,6.38
2022-11-03T20:15:49.900Z,4.70
2022-11-03T20:18:18.401Z,5.90
2022-11-03T20:20:48.552Z,5.35
2022-11-03T20:23:30.254Z,4.45
2022-11-03T20:25:58.683Z,4.35
2022-11-03T20:28:29.729Z,3.35
2022-11-03T20:30:58.303Z,3.15
2022-11-03T20:33:26.267Z,3.20
2022-11-03T20:35:54.952Z,3.03
2022-11-03T20:38:25.110Z,2.88
2022-11-03T20:40:58.915Z,2.75
2022-11-03T20:43:40.074Z,2.80
2022-11-03T20:46:25.128Z,2.55
2022-11-03T20:48:55.572Z,2.90
2022-11-03T20:51:31.522Z,2.58
2022-11-03T20:54:02.133Z,2.67
2022-11-03T20:56:30.192Z,2.70
2022-11-03T20:58:58.663Z,2.15
2022-11-03T21:01:33.484Z,2.75
2022-11-03T21:04:03.395Z,2.70
2022-11-03T21:06:33.072Z,2.20
2022-11-03T21:09:00.732Z,2.47
2022-11-03T21:11:34.118Z,2.47
2022-11-03T21:14:15.810Z,2.13
2022-11-03T21:17:02.324Z,2.22
2022-11-03T21:19:51.944Z,2.00
2022-11-03T21:22:53.245Z,3.40
2022-11-03T21:25:23.653Z,3.63
2022-11-03T21:27:53.865Z,3.92
2022-11-03T21:30:22.545Z,4.97
2022-11-03T21:32:50.407Z,2.72
2022-11-03T21:35:20.710Z,2.42
2022-11-03T21:37:48.779Z,2.33
2022-11-03T21:40:16.847Z,3.15
2022-11-03T21:43:02.665Z,2.47
2022-11-03T21:45:30.362Z,2.33
2022-11-03T21:48:16.851Z,2.03
2022-11-03T21:50:44.852Z,1.85
2022-11-03T21:53:12.612Z,1.48
2022-11-03T21:55:40.457Z,1.33
2022-11-03T21:58:08.775Z,1.40
2022-11-03T22:00:36.782Z,1.17
2022-11-03T22:03:04.465Z,0.88
2022-11-03T22:05:32.103Z,0.98
2022-11-03T22:07:59.692Z,0.70
2022-11-03T22:10:28.015Z,0.80
2022-11-03T22:12:55.963Z,0.80
2022-11-03T22:15:42.011Z,1.15
2022-11-03T22:18:09.855Z,0.80
2022-11-03T22:20:55.994Z,0.88
2022-11-03T22:23:41.769Z,0.80
2022-11-03T22:26:34.361Z,0.60
2022-11-03T22:29:31.413Z,0.70
2022-11-03T22:31:58.998Z,0.47
2022-11-03T22:34:45.113Z,0.50
2022-11-03T22:37:12.798Z,0.60
2022-11-03T22:39:59.049Z,0.60
2022-11-03T22:42:45.149Z,0.55
2022-11-03T22:45:31.435Z,0.40
2022-11-03T22:47:59.412Z,0.40
2022-11-03T22:50:27.062Z,0.50
2022-11-03T22:52:54.636Z,0.50
2022-11-03T22:55:22.604Z,0.30
2022-11-03T22:57:50.298Z,0.30
2022-11-03T23:00:20.515Z,0.50
2022-11-03T23:02:48.002Z,0.32
2022-11-03T23:05:15.569Z,0.73
2022-11-03T23:07:43.006Z,0.50
2022-11-03T23:10:10.511Z,0.70
2022-11-03T23:12:37.930Z,0.80
2022-11-03T23:15:24.326Z,0.85
2022-11-03T23:18:10.103Z,0.50
2022-11-03T23:20:58.963Z,0.77
2022-11-03T23:23:44.622Z,0.60
2022-11-03T23:26:12.189Z,0.52
2022-11-03T23:28:40.260Z,0.80
2022-11-03T23:31:08.289Z,0.63
2022-11-03T23:33:36.128Z,0.77
2022-11-03T23:36:08.881Z,1.00
2022-11-03T23:38:37.765Z,0.95
2022-11-03T23:41:16.110Z,1.50
2022-11-03T23:43:44.684Z,2.30
2022-11-03T23:46:32.391Z,1.00
2022-11-03T23:48:59.922Z,1.08
2022-11-03T23:51:29.624Z,0.98
2022-11-03T23:53:58.451Z,1.25
2022-11-03T23:56:47.505Z,1.63
2022-11-03T23:59:16.685Z,1.30
